Time;durP1;ratioP1;P1;durP2;ratioP2;P2;SDS_P1;SDS_P2;PMS_P1;PMS_P2;Temp;Humidity;BMP_temperature;BMP_pressure;BME280_temperature;BME280_humidity;BME280_pressure;Samples;Min_cycle;Max_cycle;Signal;HPM_P1;HPM_P2
2022/05/02 00:00:25;;;;;;;;;;;;;;;18.89;32.18;98696.72;4488187;32;19994;-87
2022/05/02 00:02:50;;;;;;;;;;;;;;;18.80;33.08;98693.06;4488165;31;19996;-88
2022/05/02 00:05:16;;;;;;;;;;;;;;;18.88;32.85;98689.72;4488068;31;20006;-87
2022/05/02 00:07:41;;;;;;;;;;;;;;;18.88;32.94;98684.38;4488096;32;19975;-87
2022/05/02 00:10:07;;;;;;;;;;;;;;;18.86;33.26;98689.84;4486909;32;20217;-87
2022/05/02 00:12:32;;;;;;;;;;;;;;;18.84;33.77;98686.47;4488022;31;19972;-87
2022/05/02 00:14:57;;;;;;;;;;;;;;;18.83;33.72;98687.44;4488014;32;20008;-87
2022/05/02 00:17:56;;;;;;;;;;;;;;;18.79;33.67;98683.31;4486799;32;20023;-87
2022/05/02 00:20:08;;;;;;;;;;;;;;;18.76;33.54;98686.28;4486754;32;19987;-87
2022/05/02 00:22:33;;;;;;;;;;;;;;;18.74;33.55;98677.59;4486547;32;20045;-87
2022/05/02 00:24:58;;;;;;;;;;;;;;;18.73;33.82;98684.72;4486746;32;19976;-87
2022/05/02 00:27:24;;;;;;;;;;;;;;;18.70;33.69;98684.16;4487802;31;20011;-87
2022/05/02 00:29:49;;;;;;;;;;;;;;;18.68;33.50;98681.63;4486785;32;20028;-87
2022/05/02 00:32:14;;;;;;;;;;;;;;;18.70;33.21;98684.16;4487691;32;20315;-87
2022/05/02 00:34:39;;;;;;;;;;;;;;;18.67;32.99;98693.28;4486757;32;20217;-87
2022/05/02 00:37:05;;;;;;;;;;;;;;;18.63;32.96;98682.03;4487912;32;19964;-88
2022/05/02 00:39:30;;;;;;;;;;;;;;;18.35;33.25;98680.13;4488001;31;20022;-88
2022/05/02 00:41:56;;;;;;;;;;;;;;;18.46;32.70;98680.88;4486580;32;19996;-88
2022/05/02 00:44:21;;;;;;;;;;;;;;;18.46;33.20;98680.88;4486728;32;19972;-88
2022/05/02 00:46:46;;;;;;;;;;;;;;;18.44;33.40;98672.16;4473293;32;19988;-88
2022/05/02 00:49:11;;;;;;;;;;;;;;;18.52;33.33;98681.31;4487805;32;20028;-88
2022/05/02 00:51:36;;;;;;;;;;;;;;;18.56;33.48;98680.91;4487750;32;20255;-88
2022/05/02 00:54:02;;;;;;;;;;;;;;;18.41;34.15;98679.62;4486427;32;19972;-88
2022/05/02 00:56:27;;;;;;;;;;;;;;;18.52;33.75;98687.47;4486572;32;20312;-87
2022/05/02 00:58:52;;;;;;;;;;;;;;;18.45;33.81;98684.53;4486291;32;19983;-87
2022/05/02 01:01:18;;;;;;;;;;;;;;;18.20;33.45;98680.53;4486196;32;20002;-87
2022/05/02 01:03:43;;;;;;;;;;;;;;;18.38;34.08;98686.03;4473152;32;19994;-87
2022/05/02 01:08:52;;;;;;;;;;;;;;;18.50;34.51;98689.44;4486476;32;19994;-86
2022/05/02 01:11:18;;;;;;;;;;;;;;;18.46;34.23;98680.88;4486038;32;20016;-86
2022/05/02 01:13:48;;;;;;;;;;;;;;;18.45;33.52;98689.87;4487191;32;19986;-86
2022/05/02 01:16:23;;;;;;;;;;;;;;;18.47;33.15;98693.25;4487350;31;20031;-86
2022/05/02 01:18:50;;;;;;;;;;;;;;;18.40;34.12;98691.25;4486136;32;19995;-85
2022/05/02 01:21:16;;;;;;;;;;;;;;;18.44;33.97;98695.31;4486119;32;19968;-86
2022/05/02 01:23:42;;;;;;;;;;;;;;;18.46;34.09;98690.69;4485924;32;19991;-86
2022/05/02 01:26:07;;;;;;;;;;;;;;;18.49;34.15;98687.78;4487200;31;19968;-86
2022/05/02 01:28:40;;;;;;;;;;;;;;;18.51;34.04;98680.47;4486001;32;19988;-86
2022/05/02 01:31:05;;;;;;;;;;;;;;;18.30;33.80;98682.37;4485955;32;20031;-86
2022/05/02 01:33:31;;;;;;;;;;;;;;;18.53;33.40;98677.69;4486921;32;19999;-86
2022/05/02 01:35:57;;;;;;;;;;;;;;;18.52;33.26;98681.31;4487097;31;19987;-86
2022/05/02 01:38:22;;;;;;;;;;;;;;;18.35;33.40;98680.13;4487102;32;20043;-86
2022/05/02 01:40:47;;;;;;;;;;;;;;;18.19;33.91;98683.31;4486972;32;19986;-86
2022/05/02 01:43:13;;;;;;;;;;;;;;;18.16;33.79;98689.78;4485882;32;20015;-86
2022/05/02 01:45:38;;;;;;;;;;;;;;;18.41;33.51;98685.78;4486578;32;20013;-86
2022/05/02 01:48:04;;;;;;;;;;;;;;;18.36;34.30;98687.16;4485560;32;19988;-86
2022/05/02 01:50:29;;;;;;;;;;;;;;;18.46;33.80;98680.03;4486940;31;20051;-86
2022/05/02 01:52:54;;;;;;;;;;;;;;;18.45;33.70;98673.03;4485526;32;19967;-86
2022/05/02 01:55:20;;;;;;;;;;;;;;;18.05;34.13;98684.53;4486801;32;19979;-89
2022/05/02 01:57:47;;;;;;;;;;;;;;;18.43;33.87;98678.50;4472442;32;19983;-89
2022/05/02 02:00:12;;;;;;;;;;;;;;;18.56;33.72;98680.91;4485531;32;19987;-88
2022/05/02 02:02:37;;;;;;;;;;;;;;;18.53;33.78;98689.19;4486699;31;20013;-88
2022/05/02 02:07:47;;;;;;;;;;;;;;;18.74;33.95;98697.09;4485770;32;20002;-88
2022/05/02 02:10:12;;;;;;;;;;;;;;;18.76;34.83;98691.63;4486596;32;19960;-88
2022/05/02 02:12:37;;;;;;;;;;;;;;;18.71;34.72;98685.84;4486322;32;20106;-88
2022/05/02 02:15:02;;;;;;;;;;;;;;;18.76;33.91;98684.47;4486620;32;20235;-88
2022/05/02 02:17:28;;;;;;;;;;;;;;;18.83;33.73;98690.97;4486392;32;19979;-88
2022/05/02 02:19:53;;;;;;;;;;;;;;;18.86;34.50;98695.19;4486404;32;19971;-88
2022/05/02 02:22:18;;;;;;;;;;;;;;;18.86;34.68;98693.34;4486425;32;19990;-88
2022/05/02 02:24:44;;;;;;;;;;;;;;;18.63;33.25;98684.69;4485081;32;19995;-89
2022/05/02 02:27:10;;;;;;;;;;;;;;;18.47;33.47;98679.91;4485161;32;20055;-87
2022/05/02 02:29:35;;;;;;;;;;;;;;;18.74;33.15;98686.41;4486226;32;19978;-87
2022/05/02 02:32:00;;;;;;;;;;;;;;;18.82;33.45;98688.44;4485972;32;19975;-87
2022/05/02 02:34:25;;;;;;;;;;;;;;;18.85;33.63;98681.00;4485024;32;20316;-89
2022/05/02 02:36:51;;;;;;;;;;;;;;;18.85;34.05;98685.47;4486131;32;20019;-89
2022/05/02 02:39:16;;;;;;;;;;;;;;;18.89;34.00;98676.22;4486192;32;19972;-87
2022/05/02 02:41:41;;;;;;;;;;;;;;;18.93;34.00;98692.78;4484883;32;19990;-87
2022/05/02 02:44:06;;;;;;;;;;;;;;;18.93;34.77;98682.09;4484832;32;20046;-87
2022/05/02 02:46:32;;;;;;;;;;;;;;;18.42;35.07;98686.62;4484808;32;19984;-87
2022/05/02 02:48:57;;;;;;;;;;;;;;;18.76;34.61;98688.97;4486064;32;19964;-88
2022/05/02 02:51:22;;;;;;;;;;;;;;;18.82;34.78;98688.44;4485872;32;19975;-87
2022/05/02 02:53:48;;;;;;;;;;;;;;;18.83;34.60;98688.28;4485778;31;19992;-88
2022/05/02 02:56:14;;;;;;;;;;;;;;;18.83;34.31;98688.28;4486067;31;20075;-87
2022/05/02 02:58:39;;;;;;;;;;;;;;;18.85;34.59;98683.66;4473995;32;19975;-86
2022/05/02 03:01:05;;;;;;;;;;;;;;;18.89;34.83;98678.03;4488341;31;19975;-91
2022/05/02 03:03:30;;;;;;;;;;;;;;;18.90;35.26;98691.25;4487059;32;19980;-89
2022/05/02 03:06:01;;;;;;;;;;;;;;;18.89;34.39;98694.91;4473915;32;19995;-89
2022/05/02 03:08:27;;;;;;;;;;;;;;;18.93;34.01;98690.97;4488332;31;19983;-88
2022/05/02 03:10:52;;;;;;;;;;;;;;;18.93;34.61;98692.78;4487042;32;19987;-85
2022/05/02 03:13:17;;;;;;;;;;;;;;;18.93;35.29;98680.31;4486890;32;19976;-86
2022/05/02 03:15:42;;;;;;;;;;;;;;;18.92;35.39;98678.59;4488082;32;20017;-89
2022/05/02 03:18:08;;;;;;;;;;;;;;;18.92;35.78;98680.44;4488109;32;19972;-89
2022/05/02 03:20:33;;;;;;;;;;;;;;;18.92;36.12;98685.78;4486936;32;19976;-88
2022/05/02 03:22:58;;;;;;;;;;;;;;;18.85;34.21;98681.00;4486846;32;19991;-88
2022/05/02 03:25:24;;;;;;;;;;;;;;;18.62;34.33;98684.84;4488123;32;19996;-88
2022/05/02 03:27:49;;;;;;;;;;;;;;;18.77;34.73;98675.44;4487991;32;19990;-87
2022/05/02 03:30:14;;;;;;;;;;;;;;;18.83;35.41;98682.97;4487954;32;20221;-88
2022/05/02 03:32:39;;;;;;;;;;;;;;;18.85;36.14;98667.66;4487863;32;19983;-88
2022/05/02 03:35:05;;;;;;;;;;;;;;;18.90;36.55;98677.06;4486833;32;19980;-87
2022/05/02 03:37:30;;;;;;;;;;;;;;;18.89;36.94;98670.88;4488028;31;19982;-87
2022/05/02 03:39:55;;;;;;;;;;;;;;;18.88;37.28;98671.03;4487892;32;19982;-87
2022/05/02 03:42:21;;;;;;;;;;;;;;;18.90;37.44;98674.41;4487990;32;20047;-87
2022/05/02 03:44:46;;;;;;;;;;;;;;;18.89;37.32;98673.56;4488094;31;19979;-88
2022/05/02 03:47:11;;;;;;;;;;;;;;;18.90;37.29;98674.41;4487976;32;20316;-88
2022/05/02 03:49:36;;;;;;;;;;;;;;;18.88;37.34;98666.53;4486834;32;19972;-88
2022/05/02 03:52:02;;;;;;;;;;;;;;;18.77;37.25;98666.63;4487939;32;19991;-88
2022/05/02 03:54:27;;;;;;;;;;;;;;;18.80;36.74;98663.72;4487942;31;19990;-88
2022/05/02 03:56:53;;;;;;;;;;;;;;;18.84;37.00;98665.13;4486753;32;19972;-88
2022/05/02 03:59:18;;;;;;;;;;;;;;;18.88;36.37;98669.19;4487841;32;19967;-88
2022/05/02 04:01:45;;;;;;;;;;;;;;;18.93;36.51;98671.44;4487813;32;19979;-88
2022/05/02 04:04:10;;;;;;;;;;;;;;;18.96;36.51;98666.66;4487947;32;20020;-87
2022/05/02 04:06:35;;;;;;;;;;;;;;;18.99;36.80;98662.88;4486498;32;19971;-87
2022/05/02 04:09:01;;;;;;;;;;;;;;;19.00;36.82;98661.88;4487770;31;20018;-87
2022/05/02 04:11:26;;;;;;;;;;;;;;;19.01;36.86;98666.25;4487814;31;20002;-87
2022/05/02 04:13:51;;;;;;;;;;;;;;;18.98;36.84;98659.34;4486400;32;20008;-87
2022/05/02 04:16:16;;;;;;;;;;;;;;;19.00;36.77;98662.72;4487761;31;19967;-86
2022/05/02 04:18:43;;;;;;;;;;;;;;;19.04;36.27;98658.81;4487751;32;20023;-86
2022/05/02 04:21:08;;;;;;;;;;;;;;;19.11;36.00;98663.59;4487772;31;19976;-86
2022/05/02 04:23:34;;;;;;;;;;;;;;;19.12;36.36;98665.25;4487694;32;20353;-86
2022/05/02 04:25:59;;;;;;;;;;;;;;;19.07;35.34;98663.00;4487666;31;20013;-86
2022/05/02 04:28:24;;;;;;;;;;;;;;;19.17;36.01;98671.84;4487590;32;19990;-85
2022/05/02 04:30:49;;;;;;;;;;;;;;;19.22;37.51;98671.44;4487648;32;20014;-86
2022/05/02 04:33:15;;;;;;;;;;;;;;;19.25;37.75;98671.16;4487465;32;20285;-87
2022/05/02 04:35:40;;;;;;;;;;;;;;;19.20;37.82;98674.25;4487688;31;19972;-87
2022/05/02 04:38:05;;;;;;;;;;;;;;;19.31;38.40;98675.91;4487609;32;19983;-87
2022/05/02 04:40:30;;;;;;;;;;;;;;;19.37;38.05;98680.72;4487711;31;20023;-87
2022/05/02 04:42:56;;;;;;;;;;;;;;;19.43;39.07;98681.94;4487507;32;19990;-87
2022/05/02 04:45:21;;;;;;;;;;;;;;;19.49;39.54;98689.41;4487538;32;19989;-88
2022/05/02 04:47:46;;;;;;;;;;;;;;;19.56;39.32;98684.34;4487532;31;19986;-89
2022/05/02 04:50:12;;;;;;;;;;;;;;;19.57;39.80;98681.53;4486276;32;19984;-90
2022/05/02 04:52:37;;;;;;;;;;;;;;;19.64;40.15;98677.28;4487516;31;20023;-90
2022/05/02 04:55:02;;;;;;;;;;;;;;;19.55;37.59;98688.00;4486339;32;19968;-87
2022/05/02 04:57:27;;;;;;;;;;;;;;;19.61;38.29;98682.91;4486127;32;19975;-87
2022/05/02 04:59:53;;;;;;;;;;;;;;;19.67;38.97;98686.84;4486317;32;19972;-88
2022/05/02 05:02:18;;;;;;;;;;;;;;;19.75;38.63;98688.81;4473358;32;20028;-88
2022/05/02 05:04:43;;;;;;;;;;;;;;;19.76;35.34;98694.03;4486388;32;19967;-89
2022/05/02 05:07:08;;;;;;;;;;;;;;;19.81;34.65;98693.59;4487677;32;20213;-89
2022/05/02 05:09:34;;;;;;;;;;;;;;;19.86;35.23;98694.00;4487730;31;19972;-89
2022/05/02 05:12:08;;;;;;;;;;;;;;;19.94;35.41;98698.63;4486270;32;19980;-88
2022/05/02 05:17:58;;;;;;;;;;;;;;;20.07;35.21;98696.47;4486291;32;20566;-87
2022/05/02 05:20:42;;;;;;;;;;;;;;;20.16;35.10;98698.25;4422409;32;19989;-85
2022/05/02 05:23:08;;;;;;;;;;;;;;;20.31;33.84;98700.44;4410067;32;20015;-85
2022/05/02 05:25:48;;;;;;;;;;;;;;;20.43;32.98;98704.59;4422895;32;20329;-84
2022/05/02 05:28:25;;;;;;;;;;;;;;;20.50;32.20;98703.03;4422845;32;19981;-85
2022/05/02 05:30:52;;;;;;;;;;;;;;;20.34;32.54;98705.50;4422866;32;19997;-87
2022/05/02 05:33:30;;;;;;;;;;;;;;;20.26;33.08;98700.88;4413027;32;19992;-83
2022/05/02 05:36:03;;;;;;;;;;;;;;;20.47;32.76;98700.63;4436987;32;20024;-84
2022/05/02 05:38:34;;;;;;;;;;;;;;;20.53;33.02;98699.19;4438115;32;19986;-83
2022/05/02 05:41:15;;;;;;;;;;;;;;;20.42;32.01;98703.78;4427710;32;20104;-81
2022/05/02 05:43:47;;;;;;;;;;;;;;;20.41;32.48;98698.56;4415569;32;20010;-81
2022/05/02 05:46:23;;;;;;;;;;;;;;;20.62;33.56;98699.19;4395968;32;19993;-83
2022/05/02 05:48:48;;;;;;;;;;;;;;;20.73;34.41;98694.62;4399900;32;20618;-80
2022/05/02 05:51:20;;;;;;;;;;;;;;;20.79;33.66;98692.19;4411425;32;20441;-84
2022/05/02 05:54:03;;;;;;;;;;;;;;;20.85;32.82;98695.25;4409781;32;20005;-84
2022/05/02 05:56:58;;;;;;;;;;;;;;;20.60;32.81;98686.94;4426050;31;19990;-83
2022/05/02 05:59:32;;;;;;;;;;;;;;;20.81;34.45;98698.22;4436623;32;20183;-84
2022/05/02 06:02:05;;;;;;;;;;;;;;;20.90;33.62;98699.16;4435986;32;20837;-85
2022/05/02 06:04:30;;;;;;;;;;;;;;;20.80;32.78;98696.56;4437036;32;20120;-84
2022/05/02 06:06:56;;;;;;;;;;;;;;;20.58;32.05;98697.75;4424682;32;19980;-83
2022/05/02 06:09:21;;;;;;;;;;;;;;;20.53;33.97;98696.53;4437691;32;20486;-82
2022/05/02 06:11:46;;;;;;;;;;;;;;;20.75;33.19;98700.69;4437633;32;20028;-81
2022/05/02 06:14:11;;;;;;;;;;;;;;;20.92;32.42;98699.84;4424699;32;20008;-83
2022/05/02 06:19:25;;;;;;;;;;;;;;;20.98;33.25;98696.56;4426807;32;20012;-82
2022/05/02 06:21:50;;;;;;;;;;;;;;;21.02;32.09;98702.47;4437516;32;19996;-92
2022/05/02 06:24:15;;;;;;;;;;;;;;;21.02;32.89;98703.28;4424546;32;20020;-82
2022/05/02 06:26:41;;;;;;;;;;;;;;;20.98;36.46;98704.59;4436272;32;20044;-87
2022/05/02 06:29:09;;;;;;;;;;;;;;;21.08;35.73;98704.53;4422128;32;20008;-86
2022/05/02 06:31:37;;;;;;;;;;;;;;;21.18;34.25;98705.28;4423884;32;20012;-87
2022/05/02 06:34:03;;;;;;;;;;;;;;;21.11;35.36;98708.72;4438449;32;20009;-86
2022/05/02 06:36:35;;;;;;;;;;;;;;;21.28;35.74;98699.84;4463018;32;20004;-86
2022/05/02 06:39:16;;;;;;;;;;;;;;;21.35;37.48;98705.44;4487756;32;19971;-86
2022/05/02 06:41:45;;;;;;;;;;;;;;;21.35;37.62;98703.59;4487727;32;20039;-86
2022/05/02 06:44:18;;;;;;;;;;;;;;;21.55;36.20;98706.13;4488482;32;19990;-86
2022/05/02 06:46:53;;;;;;;;;;;;;;;21.63;35.23;98708.84;4474176;32;20273;-86
2022/05/02 06:49:18;;;;;;;;;;;;;;;21.75;35.05;98715.66;4474186;32;19990;-86
2022/05/02 06:51:48;;;;;;;;;;;;;;;21.91;34.46;98716.78;4488236;32;20270;-87
2022/05/02 06:54:20;;;;;;;;;;;;;;;21.98;34.09;98715.97;4488256;32;19983;-88
2022/05/02 06:57:04;;;;;;;;;;;;;;;22.05;33.13;98718.03;4474051;32;20027;-87
2022/05/02 06:59:33;;;;;;;;;;;;;;;22.03;32.39;98715.50;4488633;32;19968;-86
2022/05/02 07:01:59;;;;;;;;;;;;;;;22.14;32.45;98719.75;4488533;32;19991;-86
2022/05/02 07:04:24;;;;;;;;;;;;;;;22.21;31.22;98720.78;4474309;32;20032;-87
2022/05/02 07:06:55;;;;;;;;;;;;;;;22.29;31.56;98725.38;4488203;32;20009;-86
2022/05/02 07:09:22;;;;;;;;;;;;;;;22.39;31.74;98723.44;4488220;32;19971;-87
2022/05/02 07:11:59;;;;;;;;;;;;;;;22.47;32.10;98728.00;4488301;32;19994;-86
2022/05/02 07:14:24;;;;;;;;;;;;;;;22.49;31.74;98726.84;4474035;32;19991;-86
2022/05/02 07:16:49;;;;;;;;;;;;;;;22.50;31.88;98727.66;4488215;32;20252;-86
2022/05/02 07:19:34;;;;;;;;;;;;;;;22.64;31.95;98723.53;4473875;32;19987;-86
2022/05/02 07:21:59;;;;;;;;;;;;;;;22.62;31.43;98730.91;4488378;32;19995;-86
2022/05/02 07:24:57;;;;;;;;;;;;;;;22.63;31.17;98727.22;4488379;32;19976;-86
2022/05/02 07:27:34;;;;;;;;;;;;;;;22.72;30.49;98723.56;4423554;32;20000;-87
2022/05/02 07:30:00;;;;;;;;;;;;;;;22.78;31.16;98718.38;4423862;32;20083;-87
2022/05/02 07:32:25;;;;;;;;;;;;;;;22.93;30.48;98723.97;4410704;32;20017;-86
2022/05/02 07:34:51;;;;;;;;;;;;;;;23.04;29.91;98720.13;4411042;32;20013;-86
2022/05/02 07:37:17;;;;;;;;;;;;;;;23.07;30.37;98717.12;4423689;32;20027;-87
2022/05/02 07:39:42;;;;;;;;;;;;;;;23.15;30.29;98711.75;4410868;32;20316;-86
2022/05/02 07:42:07;;;;;;;;;;;;;;;23.21;30.69;98714.81;4410606;32;19997;-86
2022/05/02 07:44:33;;;;;;;;;;;;;;;23.36;30.11;98710.44;4410816;32;20004;-86
2022/05/02 07:47:00;;;;;;;;;;;;;;;23.40;29.87;98708.25;4410915;32;20010;-87
2022/05/02 07:49:25;;;;;;;;;;;;;;;23.45;30.63;98705.91;4410955;32;20321;-87
2022/05/02 07:51:51;;;;;;;;;;;;;;;23.57;29.90;98707.25;4410848;32;20004;-86
2022/05/02 07:54:20;;;;;;;;;;;;;;;23.70;30.04;98710.28;4423562;32;20001;-86
2022/05/02 07:56:46;;;;;;;;;;;;;;;23.70;30.59;98715.66;4423516;32;20317;-86
2022/05/02 07:59:12;;;;;;;;;;;;;;;23.72;29.48;98705.56;4423594;32;19997;-86
2022/05/02 08:01:37;;;;;;;;;;;;;;;23.62;30.47;98710.25;4410780;32;19997;-87
2022/05/02 08:04:02;;;;;;;;;;;;;;;23.62;30.32;98706.72;4469781;32;19988;-87
2022/05/02 08:06:27;;;;;;;;;;;;;;;23.67;29.73;98707.06;4473638;32;20008;-86
2022/05/02 08:09:16;;;;;;;;;;;;;;;23.86;29.64;98712.13;4487764;32;19990;-86
2022/05/02 08:11:41;;;;;;;;;;;;;;;24.02;29.71;98708.56;4423711;32;20001;-87
2022/05/02 08:14:25;;;;;;;;;;;;;;;24.04;29.27;98711.91;4423269;32;20274;-87
2022/05/02 08:16:59;;;;;;;;;;;;;;;24.20;29.43;98712.87;4410731;32;20519;-87
2022/05/02 08:19:28;;;;;;;;;;;;;;;24.23;29.27;98707.16;4410722;32;20001;-88
2022/05/02 08:27:43;;;;;;;;;;;;;;;24.44;29.27;98707.41;4412680;32;20167;-87
2022/05/02 08:30:17;;;;;;;;;;;;;;;24.42;29.34;98701.38;4423284;32;20001;-86
2022/05/02 08:32:48;;;;;;;;;;;;;;;24.62;29.39;98700.97;4423093;32;19989;-87
2022/05/02 08:35:16;;;;;;;;;;;;;;;24.57;29.36;98701.50;4423247;32;20058;-87
2022/05/02 08:38:07;;;;;;;;;;;;;;;24.60;29.13;98695.75;4410652;32;19984;-86
2022/05/02 08:40:41;;;;;;;;;;;;;;;24.66;29.68;98692.34;4423254;32;20008;-87
2022/05/02 08:43:25;;;;;;;;;;;;;;;24.76;28.97;98699.38;4423242;32;20611;-87
2022/05/02 08:46:06;;;;;;;;;;;;;;;24.75;29.71;98698.56;4423510;32;20347;-86
2022/05/02 08:49:32;;;;;;;;;;;;;;;24.79;29.37;98699.03;4449901;32;20008;-86
2022/05/02 08:51:58;;;;;;;;;;;;;;;24.79;29.80;98691.78;4487336;32;20361;-86
2022/05/02 08:54:23;;;;;;;;;;;;;;;24.87;29.30;98693.59;4486564;32;19986;-86
2022/05/02 08:56:50;;;;;;;;;;;;;;;24.75;29.68;98687.78;4487491;32;19976;-86
2022/05/02 08:59:31;;;;;;;;;;;;;;;24.89;28.91;98695.09;4487479;32;20015;-86
2022/05/02 09:02:03;;;;;;;;;;;;;;;24.83;28.71;98690.41;4487387;32;19972;-87
2022/05/02 09:04:34;;;;;;;;;;;;;;;24.77;29.63;98691.13;4487394;32;20032;-87
2022/05/02 09:07:05;;;;;;;;;;;;;;;24.84;29.30;98685.84;4487452;32;20028;-87
2022/05/02 09:09:43;;;;;;;;;;;;;;;24.69;29.27;98683.94;4473045;32;20043;-87
2022/05/02 09:12:37;;;;;;;;;;;;;;;24.84;29.74;98685.84;4487206;32;19975;-87
2022/05/02 09:15:05;;;;;;;;;;;;;;;24.68;29.31;98687.63;4473620;32;19979;-87
2022/05/02 09:17:30;;;;;;;;;;;;;;;24.72;28.68;98680.91;4487361;32;20308;-87
2022/05/02 09:20:02;;;;;;;;;;;;;;;24.78;29.18;98681.19;4472966;32;19973;-87
2022/05/02 09:22:46;;;;;;;;;;;;;;;24.78;29.09;98683.88;4487182;32;19972;-86
2022/05/02 09:25:12;;;;;;;;;;;;;;;24.81;29.21;98687.06;4487556;32;19991;-86
2022/05/02 09:27:52;;;;;;;;;;;;;;;24.79;28.81;98683.72;4487496;32;20453;-86
2022/05/02 09:30:35;;;;;;;;;;;;;;;24.86;28.66;98682.00;4487267;32;20039;-86
2022/05/02 09:33:19;;;;;;;;;;;;;;;24.99;28.48;98680.56;4487007;32;19978;-86
2022/05/02 09:35:49;;;;;;;;;;;;;;;24.84;29.63;98677.78;4472935;32;20024;-86
2022/05/02 09:38:14;;;;;;;;;;;;;;;24.85;29.29;98683.00;4472893;32;20002;-87
2022/05/02 09:40:41;;;;;;;;;;;;;;;24.79;30.17;98681.00;4486913;32;19976;-86
2022/05/02 09:43:10;;;;;;;;;;;;;;;24.73;29.80;98676.34;4486959;32;19990;-87
2022/05/02 09:51:36;;;;;;;;;;;;;;;24.75;29.60;98671.62;4486999;32;19975;-86
2022/05/02 09:54:05;;;;;;;;;;;;;;;24.77;29.92;98674.13;4486833;32;20071;-86
2022/05/02 09:56:40;;;;;;;;;;;;;;;24.85;29.72;98669.53;4486858;32;20021;-87
2022/05/02 09:59:07;;;;;;;;;;;;;;;24.87;30.23;98677.44;4486875;32;20041;-86
2022/05/02 10:01:33;;;;;;;;;;;;;;;24.73;30.04;98654.78;4486742;32;19986;-86
2022/05/02 10:04:01;;;;;;;;;;;;;;;24.80;30.27;98657.59;4472680;32;19985;-87
2022/05/02 10:06:39;;;;;;;;;;;;;;;24.81;28.71;98662.81;4487739;32;19988;-87
2022/05/02 10:09:05;;;;;;;;;;;;;;;24.78;28.64;98663.16;4488649;32;20494;-86
2022/05/02 10:11:43;;;;;;;;;;;;;;;24.57;29.00;98649.47;4474381;32;20691;-87
2022/05/02 10:14:17;;;;;;;;;;;;;;;24.59;28.23;98650.13;4474226;32;20350;-87
2022/05/02 10:16:45;;;;;;;;;;;;;;;24.57;28.55;98646.78;4488599;32;19983;-86
2022/05/02 10:19:10;;;;;;;;;;;;;;;24.25;28.84;98654.00;4488585;32;19998;-87
2022/05/02 10:21:48;;;;;;;;;;;;;;;24.26;28.91;98643.06;4488534;32;19991;-87
2022/05/02 10:24:39;;;;;;;;;;;;;;;24.34;29.01;98632.25;4488552;32;19980;-87
2022/05/02 10:27:37;;;;;;;;;;;;;;;24.37;29.54;98636.44;4471223;32;19980;-86
2022/05/02 10:30:07;;;;;;;;;;;;;;;24.36;29.19;98626.69;4424159;32;20097;-86
2022/05/02 10:32:52;;;;;;;;;;;;;;;24.44;28.91;98632.03;4423791;32;20320;-86
2022/05/02 10:35:18;;;;;;;;;;;;;;;24.59;29.44;98626.75;4424152;32;20041;-86
2022/05/02 10:37:57;;;;;;;;;;;;;;;24.64;29.10;98628.91;4424212;32;19989;-87
2022/05/02 10:40:28;;;;;;;;;;;;;;;24.78;29.46;98630.00;4411392;32;19989;-86
2022/05/02 10:42:53;;;;;;;;;;;;;;;24.98;28.91;98622.28;4424050;32;20030;-86
2022/05/02 10:45:19;;;;;;;;;;;;;;;24.91;28.42;98619.47;4424019;32;19997;-86
2022/05/02 10:47:46;;;;;;;;;;;;;;;24.69;28.84;98621.16;4424034;32;20009;-86
2022/05/02 10:50:30;;;;;;;;;;;;;;;24.86;28.57;98611.94;4424092;32;20442;-86
2022/05/02 10:52:58;;;;;;;;;;;;;;;25.16;27.83;98609.31;4424063;32;19987;-86
2022/05/02 10:55:33;;;;;;;;;;;;;;;25.24;27.77;98620.06;4424228;32;20325;-87
2022/05/02 10:58:03;;;;;;;;;;;;;;;25.36;27.68;98611.53;4411425;32;20044;-86
2022/05/02 11:00:29;;;;;;;;;;;;;;;25.66;27.47;98610.56;4411515;32;20120;-87
2022/05/02 11:03:23;;;;;;;;;;;;;;;25.83;27.52;98605.81;4424192;32;20011;-87
2022/05/02 11:06:15;;;;;;;;;;;;;;;26.00;26.27;98600.25;4450050;32;20028;-86
2022/05/02 11:08:45;;;;;;;;;;;;;;;26.13;24.67;98608.53;4423986;32;20029;-87
2022/05/02 11:11:12;;;;;;;;;;;;;;;26.24;24.73;98599.13;4411422;32;20546;-88
2022/05/02 11:13:43;;;;;;;;;;;;;;;26.25;25.34;98600.78;4424027;32;20102;-87
2022/05/02 11:16:11;;;;;;;;;;;;;;;26.54;25.41;98594.50;4411454;32;19977;-86
2022/05/02 11:21:39;;;;;;;;;;;;;;;26.75;24.27;98588.28;4423858;32;20292;-88
2022/05/02 11:24:20;;;;;;;;;;;;;;;26.63;25.10;98584.41;4423929;32;19985;-87
2022/05/02 11:26:48;;;;;;;;;;;;;;;26.73;23.82;98590.34;4423710;32;20396;-87
2022/05/02 11:29:16;;;;;;;;;;;;;;;26.72;23.95;98593.25;4411041;32;19985;-87
2022/05/02 11:31:44;;;;;;;;;;;;;;;26.91;24.18;98587.19;4423832;32;19989;-87
2022/05/02 11:34:28;;;;;;;;;;;;;;;27.02;23.45;98583.13;4423435;32;19996;-87
2022/05/02 11:36:55;;;;;;;;;;;;;;;27.15;23.11;98583.25;4423734;32;20003;-87
2022/05/02 11:39:36;;;;;;;;;;;;;;;27.10;23.29;98588.41;4411028;32;20080;-87
2022/05/02 11:42:07;;;;;;;;;;;;;;;27.04;24.04;98581.06;4423805;32;20388;-86
2022/05/02 11:44:33;;;;;;;;;;;;;;;27.12;23.31;98582.78;4430913;32;19989;-87
2022/05/02 11:47:13;;;;;;;;;;;;;;;27.14;22.92;98576.19;4473785;32;20229;-87
2022/05/02 11:49:50;;;;;;;;;;;;;;;27.13;22.60;98574.50;4460883;32;20040;-87
2022/05/02 11:52:21;;;;;;;;;;;;;;;27.21;22.97;98568.94;4487851;32;19999;-87
2022/05/02 11:54:47;;;;;;;;;;;;;;;27.27;22.16;98570.03;4473765;32;20339;-88
2022/05/02 11:57:14;;;;;;;;;;;;;;;27.32;22.08;98558.66;4473517;32;19987;-86
2022/05/02 11:59:51;;;;;;;;;;;;;;;27.36;22.71;98568.03;4473668;32;20304;-86
2022/05/02 12:02:36;;;;;;;;;;;;;;;27.40;22.38;98563.91;4460527;32;20355;-86
2022/05/02 12:05:02;;;;;;;;;;;;;;;27.35;21.54;98559.09;4488107;32;20043;-85
2022/05/02 12:07:33;;;;;;;;;;;;;;;27.22;22.40;98564.38;4488119;32;20315;-86
2022/05/02 12:10:03;;;;;;;;;;;;;;;27.21;23.14;98551.88;4474198;32;19984;-85
2022/05/02 12:12:28;;;;;;;;;;;;;;;27.30;23.39;98558.03;4473632;32;20059;-88
2022/05/02 12:14:59;;;;;;;;;;;;;;;27.31;22.92;98548.84;4473803;32;19963;-88
2022/05/02 12:17:24;;;;;;;;;;;;;;;27.37;23.13;98546.22;4488059;32;19976;-87
2022/05/02 12:19:49;;;;;;;;;;;;;;;27.44;22.95;98538.97;4473741;32;20005;-87
2022/05/02 12:22:26;;;;;;;;;;;;;;;27.34;22.74;98534.94;4473684;32;19980;-86
2022/05/02 12:24:54;;;;;;;;;;;;;;;27.54;22.71;98532.34;4473799;32;20450;-87
2022/05/02 12:27:19;;;;;;;;;;;;;;;27.51;22.71;98530.91;4488008;32;20577;-86
2022/05/02 12:29:45;;;;;;;;;;;;;;;27.61;22.55;98520.53;4473643;32;20334;-86
2022/05/02 12:32:10;;;;;;;;;;;;;;;27.68;22.38;98526.00;4473753;32;19987;-85
2022/05/02 12:34:35;;;;;;;;;;;;;;;27.73;22.90;98518.09;4487867;32;19971;-86
2022/05/02 12:37:03;;;;;;;;;;;;;;;27.87;22.88;98513.56;4487897;32;19980;-86
2022/05/02 12:39:32;;;;;;;;;;;;;;;27.88;22.20;98512.59;4487937;32;19979;-86
2022/05/02 12:42:07;;;;;;;;;;;;;;;27.92;22.27;98516.56;4474774;31;20009;-84
2022/05/02 12:44:52;;;;;;;;;;;;;;;28.00;22.37;98510.94;4501774;31;20066;-84
2022/05/02 12:47:21;;;;;;;;;;;;;;;28.05;22.65;98518.47;4491442;31;19988;-84
2022/05/02 12:50:06;;;;;;;;;;;;;;;27.99;22.30;98506.59;4482509;31;20389;-85
2022/05/02 12:52:32;;;;;;;;;;;;;;;27.98;21.99;98501.38;4479936;31;20025;-84
2022/05/02 12:54:57;;;;;;;;;;;;;;;27.95;22.11;98499.91;4476184;32;19987;-84
2022/05/02 13:00:30;;;;;;;;;;;;;;;27.62;21.54;98499.72;4474987;32;19991;-84
2022/05/02 13:02:55;;;;;;;;;;;;;;;27.54;22.18;98499.87;4473358;32;19988;-84
2022/05/02 13:05:22;;;;;;;;;;;;;;;27.53;22.82;98495.53;4473312;32;19971;-86
2022/05/02 13:07:48;;;;;;;;;;;;;;;27.53;22.50;98492.81;4473184;32;19971;-84
2022/05/02 13:10:27;;;;;;;;;;;;;;;27.51;22.86;98484.06;4473315;32;19991;-84
2022/05/02 13:12:54;;;;;;;;;;;;;;;27.37;22.56;98486.69;4487116;32;19997;-87
2022/05/02 13:15:20;;;;;;;;;;;;;;;27.34;22.28;98478.16;4493262;31;20306;-84
2022/05/02 13:17:46;;;;;;;;;;;;;;;27.32;21.86;98467.53;4480724;31;19971;-84
2022/05/02 13:20:12;;;;;;;;;;;;;;;27.33;22.35;98476.47;4478968;31;20086;-85
2022/05/02 13:22:57;;;;;;;;;;;;;;;27.32;21.89;98472.94;4478955;32;19991;-85
2022/05/02 13:25:22;;;;;;;;;;;;;;;27.34;22.49;98470.84;4491967;31;20037;-84
2022/05/02 13:27:47;;;;;;;;;;;;;;;27.27;22.53;98472.69;4478620;32;20323;-86